Time;durP1;ratioP1;P1;durP2;ratioP2;P2;SDS_P1;SDS_P2;PMS_P1;PMS_P2;Temp;Humidity;BMP_temperature;BMP_pressure;BME280_temperature;BME280_humidity;BME280_pressure;Samples;Min_cycle;Max_cycle;Signal;HPM_P1;HPM_P2
2022/10/19 00:00:47;;;;;;;43.73;22.22;;;;;;;7.02;80.80;100600.72;1668496;85;21827;-78
2022/10/19 00:03:55;;;;;;;39.65;21.75;;;;;;;7.23;80.37;100589.13;1683918;85;21208;-78
2022/10/19 00:07:02;;;;;;;37.25;21.12;;;;;;;7.24;80.52;100585.39;1639970;87;21307;-78
2022/10/19 00:10:08;;;;;;;40.15;20.48;;;;;;;7.29;80.34;100583.11;1682930;85;21272;-78
2022/10/19 00:13:15;;;;;;;32.45;19.87;;;;;;;7.16;80.66;100581.22;1641077;87;21212;-78
2022/10/19 00:16:23;;;;;;;34.05;17.75;;;;;;;7.17;81.10;100567.97;1683941;85;21224;-78
2022/10/19 00:19:32;;;;;;;41.70;20.02;;;;;;;6.99;82.36;100563.78;1642599;87;21228;-78
2022/10/19 00:22:38;;;;;;;38.80;20.17;;;;;;;6.62;83.92;100553.69;1684017;85;21208;-78
2022/10/19 00:25:43;;;;;;;39.35;19.37;;;;;;;6.69;83.74;100552.63;1642559;87;21275;-78
2022/10/19 00:28:51;;;;;;;40.92;21.25;;;;;;;6.65;84.31;100547.97;1683849;85;21208;-78
2022/10/19 00:31:57;;;;;;;36.63;18.82;;;;;;;6.83;83.96;100546.73;1658633;85;21240;-78
2022/10/19 00:35:05;;;;;;;39.55;20.57;;;;;;;7.12;82.21;100545.28;1664674;86;21208;-78
2022/10/19 00:38:11;;;;;;;33.63;19.90;;;;;;;7.01;82.17;100545.48;1699635;84;21262;-78
2022/10/19 00:41:18;;;;;;;40.58;20.80;;;;;;;7.01;82.46;100544.59;1664313;86;21208;-78
2022/10/19 00:44:28;;;;;;;38.95;19.25;;;;;;;7.02;81.94;100539.02;1664659;86;21268;-78
2022/10/19 00:47:35;;;;;;;34.03;20.08;;;;;;;6.94;82.08;100533.45;1699255;84;21746;-79
2022/10/19 00:50:41;;;;;;;39.98;19.27;;;;;;;6.63;82.97;100528.72;1664634;86;21224;-78
2022/10/19 00:53:46;;;;;;;30.97;18.95;;;;;;;6.81;82.40;100528.33;1664769;86;21216;-78
2022/10/19 00:56:53;;;;;;;34.20;19.10;;;;;;;6.80;82.36;100521.69;1699314;84;21192;-78
2022/10/19 01:00:00;;;;;;;34.95;19.73;;;;;;;6.77;82.50;100515.17;1664810;86;21272;-78
2022/10/19 01:03:05;;;;;;;35.05;15.93;;;;;;;6.70;82.58;100509.48;1642401;86;21188;-78
2022/10/19 01:06:11;;;;;;;30.08;16.27;;;;;;;6.74;82.50;100505.47;1699087;84;21778;-78
2022/10/19 01:09:17;;;;;;;39.35;18.55;;;;;;;6.73;82.29;100498.33;1664249;86;21248;-78
2022/10/19 01:12:33;;;;;;;29.70;17.27;;;;;;;6.54;83.10;100498.34;1663639;86;21280;-79
2022/10/19 01:16:00;;;;;;;34.90;18.57;;;;;;;6.56;83.18;100492.27;1692799;84;21192;-78
2022/10/19 01:19:09;;;;;;;31.27;17.70;;;;;;;6.51;83.44;100483.70;1664647;86;21819;-78
2022/10/19 01:22:40;;;;;;;35.03;16.73;;;;;;;6.46;83.85;100476.49;1692712;84;21271;-78
2022/10/19 01:25:57;;;;;;;25.90;16.20;;;;;;;6.75;83.34;100462.31;1664651;86;21212;-78
2022/10/19 01:29:36;;;;;;;29.63;17.10;;;;;;;6.52;84.05;100459.09;1692764;84;21747;-78
2022/10/19 01:33:02;;;;;;;35.58;18.92;;;;;;;6.56;84.31;100450.14;1663547;84;21284;-78
2022/10/19 01:36:32;;;;;;;41.02;18.75;;;;;;;6.54;84.63;100454.37;1699273;84;21204;-78
2022/10/19 01:40:03;;;;;;;32.63;18.30;;;;;;;6.62;84.40;100449.04;1664756;86;21260;-78
2022/10/19 01:43:43;;;;;;;37.45;17.30;;;;;;;6.76;83.76;100447.71;1664652;86;21204;-78
2022/10/19 01:46:57;;;;;;;38.88;19.87;;;;;;;6.57;84.42;100444.55;1699235;84;21205;-78
2022/10/19 01:50:22;;;;;;;40.17;19.70;;;;;;;6.61;84.19;100449.20;1665073;86;21268;-78
2022/10/19 01:53:28;;;;;;;34.48;19.70;;;;;;;6.53;84.49;100451.78;1663630;86;21228;-78
2022/10/19 01:56:34;;;;;;;39.35;20.20;;;;;;;6.46;84.85;100445.24;1699307;84;21251;-78
2022/10/19 01:59:39;;;;;;;44.50;19.57;;;;;;;6.82;83.49;100448.50;1664675;86;21208;-78
2022/10/19 02:02:50;;;;;;;37.73;19.37;;;;;;;6.45;84.27;100436.74;1663403;86;21216;-78
2022/10/19 02:05:55;;;;;;;40.78;19.60;;;;;;;6.77;83.42;100437.19;1699292;84;21192;-78
2022/10/19 02:09:01;;;;;;;42.85;19.65;;;;;;;6.61;83.66;100434.25;1663532;86;21225;-79
2022/10/19 02:12:10;;;;;;;41.20;18.87;;;;;;;6.58;83.93;100435.39;1664136;86;21244;-78
2022/10/19 02:15:19;;;;;;;38.13;19.12;;;;;;;6.60;83.79;100427.96;1697936;84;21216;-78
2022/10/19 02:18:28;;;;;;;38.80;18.85;;;;;;;6.58;83.92;100433.17;1663368;86;21192;-78
2022/10/19 02:21:34;;;;;;;38.35;17.65;;;;;;;6.57;84.00;100433.68;1665014;86;21220;-78
2022/10/19 02:24:40;;;;;;;37.25;18.02;;;;;;;6.55;84.08;100431.62;1699331;84;21220;-78
2022/10/19 02:27:46;;;;;;;36.00;19.02;;;;;;;6.27;85.17;100432.05;1666073;86;21259;-78
2022/10/19 02:30:52;;;;;;;38.70;18.12;;;;;;;6.10;86.14;100422.77;1664246;85;21763;-78
2022/10/19 02:33:57;;;;;;;33.40;16.05;;;;;;;6.07;86.61;100419.48;1693794;84;21244;-78
2022/10/19 02:37:04;;;;;;;35.40;19.27;;;;;;;6.03;87.05;100425.72;1641468;87;21227;-78
2022/10/19 02:40:11;;;;;;;32.10;17.50;;;;;;;6.12;86.97;100422.14;1682592;85;21256;-78
2022/10/19 02:43:22;;;;;;;33.25;19.15;;;;;;;6.21;86.87;100422.25;1641684;87;21778;-78
2022/10/19 02:46:49;;;;;;;32.67;18.67;;;;;;;6.12;87.34;100428.08;1684029;85;21765;-78
2022/10/19 02:49:54;;;;;;;31.00;17.80;;;;;;;6.24;86.87;100420.61;1642745;87;21220;-78
2022/10/19 02:53:00;;;;;;;32.90;16.73;;;;;;;6.28;86.91;100419.32;1683361;85;21240;-78
2022/10/19 02:56:06;;;;;;;39.27;18.00;;;;;;;6.29;86.69;100412.38;1641266;87;21264;-78
2022/10/19 02:59:12;;;;;;;29.18;17.85;;;;;;;6.43;86.16;100412.92;1683940;85;21276;-78
2022/10/19 03:02:17;;;;;;;30.37;17.02;;;;;;;6.62;85.41;100404.70;1639967;87;21227;-78
2022/10/19 03:05:23;;;;;;;31.37;17.12;;;;;;;6.50;85.33;100400.47;1682537;85;21208;-78
2022/10/19 03:08:29;;;;;;;32.03;18.95;;;;;;;6.25;86.51;100401.95;1642228;86;21243;-78
2022/10/19 03:11:35;;;;;;;29.77;17.60;;;;;;;6.44;86.51;100396.45;1682527;85;21216;-78
2022/10/19 03:14:42;;;;;;;33.73;17.07;;;;;;;6.44;86.47;100389.66;1642675;87;21270;-78
2022/10/19 03:17:48;;;;;;;28.45;17.77;;;;;;;6.46;86.48;100382.74;1683932;85;21256;-78
2022/10/19 03:20:54;;;;;;;29.12;15.50;;;;;;;6.39;86.78;100379.23;1641219;87;21253;-78
2022/10/19 03:23:59;;;;;;;31.07;16.60;;;;;;;6.30;87.32;100379.27;1682963;85;22424;-78
2022/10/19 03:27:05;;;;;;;25.82;16.85;;;;;;;6.36;87.17;100374.62;1642522;87;21272;-78
2022/10/19 03:30:13;;;;;;;23.18;15.70;;;;;;;6.37;87.40;100369.03;1682695;85;21217;-78
2022/10/19 03:33:18;;;;;;;24.85;16.48;;;;;;;6.37;87.53;100364.95;1639976;87;21256;-78
2022/10/19 03:36:35;;;;;;;23.67;15.25;;;;;;;6.48;87.15;100356.27;1677551;85;21875;-78
2022/10/19 03:39:40;;;;;;;32.75;16.67;;;;;;;6.30;87.61;100348.87;1678189;85;21252;-78
2022/10/19 03:42:46;;;;;;;31.25;16.65;;;;;;;6.32;87.42;100345.53;1678655;85;21759;-78
2022/10/19 03:45:53;;;;;;;28.17;16.10;;;;;;;6.34;87.38;100331.79;1678722;85;21767;-78
2022/10/19 03:48:59;;;;;;;25.60;15.68;;;;;;;6.02;87.93;100336.23;1677552;85;21209;-78
2022/10/19 03:52:05;;;;;;;33.48;16.50;;;;;;;5.94;88.61;100330.70;1678736;85;21866;-78
2022/10/19 03:55:11;;;;;;;25.90;16.07;;;;;;;5.98;88.84;100328.06;1698442;84;21223;-78
2022/10/19 03:58:16;;;;;;;26.07;15.43;;;;;;;5.89;89.02;100326.53;1664869;86;21248;-78
2022/10/19 04:01:31;;;;;;;26.00;15.13;;;;;;;5.84;89.11;100317.97;1664672;86;21806;-78
2022/10/19 04:04:36;;;;;;;26.68;15.68;;;;;;;6.02;88.77;100310.44;1698310;84;21243;-78
2022/10/19 04:07:42;;;;;;;24.30;14.35;;;;;;;6.17;88.06;100304.92;1664878;86;21774;-78
2022/10/19 04:10:48;;;;;;;35.73;12.70;;;;;;;6.21;87.63;100304.09;1664354;86;21232;-78
2022/10/19 04:13:57;;;;;;;24.10;13.35;;;;;;;6.39;86.99;100296.38;1698729;84;21304;-78
2022/10/19 04:17:03;;;;;;;17.02;13.22;;;;;;;6.26;86.49;100289.09;1663948;86;21228;-78
2022/10/19 04:20:09;;;;;;;21.85;13.83;;;;;;;6.00;87.74;100289.38;1663355;85;21204;-78
2022/10/19 04:23:15;;;;;;;23.35;13.65;;;;;;;6.00;88.39;100278.52;1692808;84;21212;-79
2022/10/19 04:26:22;;;;;;;23.30;12.73;;;;;;;5.91;88.63;100276.16;1663533;86;21268;-78
2022/10/19 04:29:28;;;;;;;22.98;13.35;;;;;;;5.95;88.77;100280.83;1699348;84;21188;-78
2022/10/19 04:32:28;;;;;;;20.05;12.25;;;;;;;6.28;88.20;100277.55;1664582;86;21754;-78
2022/10/19 04:35:34;;;;;;;21.82;12.70;;;;;;;6.29;87.94;100268.91;1666639;84;21223;-79
2022/10/19 04:38:40;;;;;;;22.95;13.38;;;;;;;6.13;88.18;100271.76;1743770;82;21192;-78
2022/10/19 04:41:46;;;;;;;18.95;13.08;;;;;;;6.18;88.85;100273.17;1743777;82;21224;-78
2022/10/19 04:44:46;;;;;;;15.75;9.98;;;;;;;6.34;88.66;100268.80;1701811;84;21243;-78
2022/10/19 04:47:53;;;;;;;19.75;13.13;;;;;;;6.34;88.29;100270.16;1701097;84;21842;-78
2022/10/19 04:51:02;;;;;;;21.55;12.82;;;;;;;6.77;87.84;100263.70;1702320;84;21801;-78
2022/10/19 04:54:08;;;;;;;24.85;14.40;;;;;;;6.80;87.40;100262.90;1702052;84;21227;-78
2022/10/19 04:57:14;;;;;;;23.12;13.85;;;;;;;6.88;87.60;100264.36;1682341;84;21251;-78
2022/10/19 05:00:21;;;;;;;25.02;14.50;;;;;;;7.00;87.65;100257.32;1702333;84;21208;-78
2022/10/19 05:03:27;;;;;;;23.98;13.08;;;;;;;6.93;88.06;100254.89;1702276;84;21248;-80
2022/10/19 05:06:34;;;;;;;25.57;14.10;;;;;;;7.02;88.59;100255.32;1702496;84;21191;-79
2022/10/19 05:09:34;;;;;;;28.00;13.93;;;;;;;7.21;88.48;100247.00;1701793;84;21250;-79
2022/10/19 05:12:42;;;;;;;27.02;14.30;;;;;;;7.18;88.86;100241.86;1702295;84;21235;-79
2022/10/19 05:15:48;;;;;;;21.85;12.73;;;;;;;7.25;88.96;100244.83;1676339;84;21224;-79
2022/10/19 05:19:00;;;;;;;25.02;11.93;;;;;;;7.18;89.49;100241.35;1748593;81;21216;-80
2022/10/19 05:22:05;;;;;;;23.65;13.00;;;;;;;7.24;90.10;100239.86;1701531;84;21759;-79
2022/10/19 05:25:12;;;;;;;16.07;10.53;;;;;;;7.18;90.51;100230.47;1751335;82;21629;-80
2022/10/19 05:28:20;;;;;;;19.80;11.53;;;;;;;7.63;90.69;100236.80;1733175;81;21211;-80
2022/10/19 05:31:20;;;;;;;17.98;12.37;;;;;;;7.73;89.75;100226.66;1747591;82;21171;-81
2022/10/19 05:34:12;;;;;;;18.15;10.05;;;;;;;7.98;89.57;100225.44;1739940;80;21752;-79
2022/10/19 05:37:18;;;;;;;25.97;11.65;;;;;;;8.09;89.63;100224.66;1735383;80;21207;-79
2022/10/19 05:40:23;;;;;;;16.87;10.98;;;;;;;7.91;90.44;100212.98;1680876;84;21497;-78
2022/10/19 05:43:21;;;;;;;22.42;11.65;;;;;;;7.98;91.27;100205.86;1722668;82;21818;-79
2022/10/19 05:46:19;;;;;;;19.17;11.55;;;;;;;8.23;91.42;100204.61;1726985;82;21823;-79
2022/10/19 05:49:26;;;;;;;18.45;9.48;;;;;;;8.38;91.14;100199.78;1727742;82;21505;-79
2022/10/19 05:52:32;;;;;;;19.50;10.88;;;;;;;8.49;92.23;100197.77;1677857;84;21212;-79
2022/10/19 05:55:41;;;;;;;21.70;11.57;;;;;;;8.96;91.39;100184.41;1715634;82;21756;-79
2022/10/19 05:58:40;;;;;;;23.25;10.85;;;;;;;8.94;91.61;100177.77;1715377;82;21188;-80
2022/10/19 06:01:45;;;;;;;32.00;11.73;;;;;;;9.11;91.44;100167.69;1732435;82;21313;-79
2022/10/19 06:04:51;;;;;;;30.70;13.43;;;;;;;9.27;91.02;100162.77;1691646;84;21242;-79
2022/10/19 06:07:51;;;;;;;25.27;11.80;;;;;;;9.15;91.56;100167.70;1719335;82;21821;-78
2022/10/19 06:10:59;;;;;;;29.57;13.48;;;;;;;9.18;91.63;100156.97;1725702;82;21194;-78
2022/10/19 06:14:06;;;;;;;30.50;14.00;;;;;;;9.20;92.12;100158.48;1721952;82;21349;-80
2022/10/19 06:17:12;;;;;;;25.77;12.35;;;;;;;9.40;91.85;100156.76;1692444;84;21786;-79
2022/10/19 06:20:18;;;;;;;20.95;11.20;;;;;;;9.52;92.09;100149.93;1691152;84;21807;-79
2022/10/19 06:23:26;;;;;;;19.48;9.80;;;;;;;9.61;92.44;100152.13;1729092;82;22218;-79
2022/10/19 06:26:32;;;;;;;17.73;9.93;;;;;;;9.70;92.65;100150.58;1679139;84;21319;-79
2022/10/19 06:29:37;;;;;;;17.90;9.35;;;;;;;9.80;92.92;100142.18;1720621;82;22173;-79
2022/10/19 06:32:42;;;;;;;16.07;9.58;;;;;;;9.97;93.34;100145.20;1690867;84;21691;-80
2022/10/19 06:35:48;;;;;;;16.32;9.60;;;;;;;10.16;93.74;100134.37;1682691;82;21149;-81
2022/10/19 06:39:01;;;;;;;13.85;9.60;;;;;;;10.41;93.53;100125.55;1713795;81;21235;-81
2022/10/19 06:42:08;;;;;;;13.60;9.15;;;;;;;10.48;93.52;100119.67;1694656;84;21215;-79
2022/10/19 06:45:20;;;;;;;19.50;8.25;;;;;;;10.63;93.94;100116.16;1694464;83;21246;-79
2022/10/19 06:48:26;;;;;;;19.23;9.60;;;;;;;10.91;93.50;100107.74;1662255;84;21239;-79
2022/10/19 06:51:33;;;;;;;20.37;9.13;;;;;;;11.20;92.83;100105.63;1697566;83;21187;-79
2022/10/19 06:54:40;;;;;;;14.53;8.98;;;;;;;11.44;92.04;100096.33;1661032;86;21196;-79
2022/10/19 06:57:46;;;;;;;13.40;8.43;;;;;;;11.58;91.92;100093.27;1698709;83;21174;-79
2022/10/19 07:00:51;;;;;;;14.45;8.35;;;;;;;11.79;91.41;100097.98;1664330;85;21766;-79
2022/10/19 07:03:58;;;;;;;11.55;7.03;;;;;;;11.97;90.57;100090.26;1699090;84;21239;-79
2022/10/19 07:07:05;;;;;;;11.03;6.40;;;;;;;12.23;89.88;100087.02;1657921;84;21192;-79
2022/10/19 07:10:09;;;;;;;10.70;7.00;;;;;;;12.45;87.54;100085.66;1694841;83;21243;-79
2022/10/19 07:13:16;;;;;;;9.93;6.40;;;;;;;12.61;86.17;100087.30;1672819;84;21310;-79
2022/10/19 07:16:23;;;;;;;12.80;6.95;;;;;;;12.74;85.50;100095.16;1664961;84;21803;-80
2022/10/19 07:19:34;;;;;;;13.62;6.50;;;;;;;13.00;84.58;100087.70;1696891;83;21846;-80
2022/10/19 07:22:38;;;;;;;9.80;6.85;;;;;;;13.01;83.77;100079.79;1698415;83;22217;-80
2022/10/19 07:25:46;;;;;;;10.78;6.47;;;;;;;13.09;83.14;100085.67;1725826;83;21179;-79
2022/10/19 07:28:52;;;;;;;12.30;6.37;;;;;;;13.11;82.96;100083.56;1734394;82;21267;-79
2022/10/19 07:31:59;;;;;;;11.05;6.37;;;;;;;13.26;82.06;100078.02;1730033;83;21837;-79
2022/10/19 07:35:05;;;;;;;9.95;5.47;;;;;;;13.40;80.53;100077.59;1726140;81;21254;-78
2022/10/19 07:38:11;;;;;;;16.17;5.80;;;;;;;13.53;79.81;100070.29;1725270;81;21768;-79
2022/10/19 07:41:21;;;;;;;16.52;6.50;;;;;;;13.57;79.35;100057.00;1713907;81;21357;-78
2022/10/19 07:44:28;;;;;;;9.40;5.37;;;;;;;13.71;78.87;100046.94;1722477;82;21378;-78
2022/10/19 07:47:35;;;;;;;14.18;4.72;;;;;;;13.82;78.04;100044.98;1675155;85;21272;-78
2022/10/19 07:50:43;;;;;;;12.25;5.05;;;;;;;14.26;75.66;100045.07;1697664;83;21218;-79
2022/10/19 07:53:49;;;;;;;8.75;4.67;;;;;;;14.36;74.87;100035.89;1687582;84;21269;-79
2022/10/19 07:56:54;;;;;;;12.35;4.45;;;;;;;14.44;74.09;100030.70;1677028;84;21264;-79
2022/10/19 08:00:00;;;;;;;10.20;4.65;;;;;;;14.61;73.74;100027.08;1699456;82;21203;-79
2022/10/19 08:03:06;;;;;;;9.05;4.12;;;;;;;14.68;73.44;100018.28;1694565;82;22470;-79
2022/10/19 08:06:17;;;;;;;9.05;4.22;;;;;;;14.86;72.61;100017.13;1676648;84;21160;-79
2022/10/19 08:09:23;;;;;;;6.58;3.92;;;;;;;15.01;72.09;100008.16;1663681;84;21258;-78
2022/10/19 08:12:31;;;;;;;6.37;3.37;;;;;;;15.15;71.92;100006.74;1679399;82;21523;-78
2022/10/19 08:15:39;;;;;;;5.72;3.15;;;;;;;15.29;71.70;99991.88;1688707;83;21187;-78
2022/10/19 08:18:46;;;;;;;5.17;2.25;;;;;;;15.19;71.36;99980.46;1695196;83;21293;-79
2022/10/19 08:21:54;;;;;;;3.80;2.27;;;;;;;15.41;67.60;99971.42;1700389;82;21209;-79
2022/10/19 08:25:00;;;;;;;4.75;2.80;;;;;;;15.57;66.62;99973.19;1686057;83;21490;-80
2022/10/19 08:28:09;;;;;;;3.77;2.30;;;;;;;15.72;65.88;99962.45;1697105;83;21271;-80
2022/10/19 08:31:26;;;;;;;4.92;2.60;;;;;;;15.75;64.97;99954.57;1706870;82;22212;-80
2022/10/19 08:34:33;;;;;;;6.53;2.98;;;;;;;15.88;64.65;99950.08;1682461;81;28295;-80
2022/10/19 08:37:39;;;;;;;5.28;2.60;;;;;;;15.95;63.90;99954.50;1650276;85;21581;-80
2022/10/19 08:40:45;;;;;;;3.40;2.45;;;;;;;15.94;63.98;99945.89;1671612;84;21202;-80
2022/10/19 08:44:05;;;;;;;3.90;2.20;;;;;;;16.10;63.38;99939.03;1669052;85;21228;-81
2022/10/19 08:47:53;;;;;;;4.78;2.33;;;;;;;16.06;63.30;99935.86;1654236;85;21199;-79
2022/10/19 08:50:57;;;;;;;4.42;2.27;;;;;;;16.46;60.97;99937.50;1685440;84;21230;-80
2022/10/19 08:54:04;;;;;;;2.45;1.80;;;;;;;16.47;60.80;99928.17;1666562;84;21224;-80
2022/10/19 08:57:19;;;;;;;5.85;1.80;;;;;;;16.68;58.62;99921.41;1651909;85;21216;-79
2022/10/19 09:00:32;;;;;;;2.00;1.47;;;;;;;16.61;56.20;99920.09;1656627;85;21257;-78
2022/10/19 09:03:49;;;;;;;4.95;1.52;;;;;;;16.49;56.55;99914.98;1667719;84;21227;-79
2022/10/19 09:07:12;;;;;;;5.70;1.82;;;;;;;16.70;54.71;99906.83;1664340;85;21233;-81
2022/10/19 09:10:41;;;;;;;4.15;1.85;;;;;;;16.64;53.94;99898.91;1626582;87;21273;-79
2022/10/19 09:13:52;;;;;;;3.80;2.20;;;;;;;16.77;54.46;99882.27;1685545;84;21233;-81
2022/10/19 09:16:59;;;;;;;4.35;2.10;;;;;;;16.80;55.61;99874.08;1669795;84;21220;-78
2022/10/19 09:20:08;;;;;;;4.72;1.92;;;;;;;16.92;55.60;99875.53;1669880;85;21241;-78
2022/10/19 09:23:38;;;;;;;3.95;1.40;;;;;;;16.96;53.15;99866.56;1675615;84;21223;-79
2022/10/19 09:26:50;;;;;;;7.50;1.57;;;;;;;16.95;52.44;99862.12;1686153;84;21220;-78
2022/10/19 09:30:04;;;;;;;10.60;2.65;;;;;;;16.91;52.96;99852.59;1693850;84;21731;-79
2022/10/19 09:33:10;;;;;;;3.62;1.50;;;;;;;16.87;51.39;99849.98;1665910;84;27150;-79
2022/10/19 09:36:18;;;;;;;4.53;1.20;;;;;;;16.91;51.80;99851.21;1643075;87;22150;-79
2022/10/19 09:39:25;;;;;;;1.75;1.25;;;;;;;17.02;51.32;99847.67;1710160;82;21259;-79
2022/10/19 09:42:38;;;;;;;3.92;1.42;;;;;;;17.02;51.51;99853.20;1714218;82;21866;-79
2022/10/19 09:45:57;;;;;;;3.40;1.47;;;;;;;16.95;51.97;99851.06;1708836;82;21195;-79
2022/10/19 09:49:07;;;;;;;4.92;1.60;;;;;;;16.94;50.95;99836.08;1678644;83;21220;-78
2022/10/19 09:52:34;;;;;;;2.45;1.30;;;;;;;16.90;50.59;99831.58;1703602;84;21201;-79
2022/10/19 09:55:49;;;;;;;2.58;1.27;;;;;;;17.05;49.09;99836.17;1711718;83;22533;-80
2022/10/19 09:58:59;;;;;;;2.62;1.70;;;;;;;17.03;49.14;99835.58;1683836;83;21298;-79
2022/10/19 10:02:23;;;;;;;3.75;1.57;;;;;;;16.94;50.05;99830.55;1709294;83;21192;-79
2022/10/19 10:05:47;;;;;;;3.45;1.55;;;;;;;17.16;50.00;99835.09;1698298;83;21213;-79
2022/10/19 10:09:00;;;;;;;7.25;1.40;;;;;;;17.21;50.66;99838.01;1710464;83;21817;-79
2022/10/19 10:12:07;;;;;;;7.78;4.08;;;;;;;17.38;50.13;99832.17;1695707;84;21203;-79
2022/10/19 10:15:14;;;;;;;5.20;2.60;;;;;;;17.34;48.88;99830.94;1720799;83;21466;-79
2022/10/19 10:18:23;;;;;;;4.50;1.30;;;;;;;17.27;47.67;99813.61;1720765;83;21216;-79
2022/10/19 10:21:35;;;;;;;4.95;1.87;;;;;;;17.44;47.49;99816.56;1715563;83;21220;-78
2022/10/19 10:24:42;;;;;;;2.22;1.45;;;;;;;17.67;46.99;99816.66;1719847;83;21204;-79
2022/10/19 10:27:48;;;;;;;4.87;2.33;;;;;;;17.59;47.43;99820.59;1719265;83;21236;-79
2022/10/19 10:30:54;;;;;;;6.05;1.90;;;;;;;17.73;47.30;99805.20;1712653;82;21188;-79
2022/10/19 10:34:08;;;;;;;7.70;1.60;;;;;;;17.76;47.91;99804.77;1716967;83;21361;-79
2022/10/19 10:37:23;;;;;;;2.10;1.20;;;;;;;17.75;48.41;99797.56;1693233;84;21205;-80
2022/10/19 10:40:35;;;;;;;5.67;1.27;;;;;;;17.62;48.56;99782.80;1713458;83;21280;-80
2022/10/19 10:43:44;;;;;;;6.58;2.02;;;;;;;17.79;48.81;99783.56;1725580;82;21809;-80
2022/10/19 10:47:07;;;;;;;5.17;1.45;;;;;;;17.74;49.60;99779.28;1704947;82;21460;-80
2022/10/19 10:50:16;;;;;;;7.70;1.45;;;;;;;17.79;50.18;99772.50;1716556;82;21212;-78
2022/10/19 10:53:46;;;;;;;4.58;1.70;;;;;;;17.73;50.48;99760.44;1722808;82;21177;-78
2022/10/19 10:56:40;;;;;;;5.22;1.42;;;;;;;17.86;50.28;99758.84;1715378;82;21192;-79
2022/10/19 11:00:01;;;;;;;5.03;1.85;;;;;;;17.82;51.05;99756.25;1718227;82;22109;-78
2022/10/19 11:03:15;;;;;;;6.62;1.90;;;;;;;17.76;52.07;99752.22;1697384;83;22505;-79
2022/10/19 11:06:21;;;;;;;2.85;1.92;;;;;;;18.02;51.73;99748.16;1698001;82;21429;-80
2022/10/19 11:09:44;;;;;;;4.95;1.90;;;;;;;18.15;51.72;99752.09;1690275;84;21246;-79
2022/10/19 11:13:00;;;;;;;6.37;1.72;;;;;;;18.11;52.32;99744.83;1707208;82;21240;-79
2022/10/19 11:16:25;;;;;;;3.65;2.10;;;;;;;17.98;53.30;99742.83;1693751;84;21245;-79
2022/10/19 11:19:49;;;;;;;5.03;2.08;;;;;;;18.10;53.65;99736.75;1718907;83;21244;-80
2022/10/19 11:23:11;;;;;;;4.03;2.27;;;;;;;18.11;53.78;99726.84;1701900;83;21251;-79
2022/10/19 11:26:36;;;;;;;5.87;2.42;;;;;;;17.96;54.46;99729.20;1690434;84;21255;-79
2022/10/19 11:30:12;;;;;;;9.15;3.65;;;;;;;18.01;54.43;99718.81;1718129;82;21207;-79
2022/10/19 11:33:51;;;;;;;3.72;2.20;;;;;;;18.03;55.15;99718.89;1691746;84;21199;-79
2022/10/19 11:37:04;;;;;;;5.70;2.02;;;;;;;18.14;54.68;99713.89;1715567;82;21231;-79
2022/10/19 11:40:38;;;;;;;4.60;1.98;;;;;;;18.42;54.29;99712.32;1714234;82;21189;-79
2022/10/19 11:43:50;;;;;;;6.08;1.95;;;;;;;18.47;53.85;99701.36;1694349;83;22668;-80
2022/10/19 11:47:28;;;;;;;5.78;1.72;;;;;;;18.04;54.81;99691.51;1692287;83;21213;-79
2022/10/19 11:51:00;;;;;;;6.12;2.02;;;;;;;18.04;54.63;99691.51;1714226;82;21212;-80
2022/10/19 11:54:35;;;;;;;5.25;1.80;;;;;;;18.16;54.48;99686.50;1712896;82;21239;-80
2022/10/19 11:57:48;;;;;;;6.78;2.55;;;;;;;18.17;54.20;99677.14;1695782;83;22232;-79
2022/10/19 12:01:05;;;;;;;5.22;1.85;;;;;;;18.35;52.77;99676.47;1717630;82;22266;-79
2022/10/19 12:04:42;;;;;;;5.35;1.85;;;;;;;18.90;50.70;99671.00;1716561;82;21181;-79
2022/10/19 12:08:09;;;;;;;3.70;1.82;;;;;;;19.31;48.94;99670.41;1718706;83;21271;-79
2022/10/19 12:11:16;;;;;;;;;;;;;;;18.12;52.65;99670.41;1718119;83;22598;-80
2022/10/19 12:14:30;;;;;;;5.12;1.70;;;;;;;18.18;52.73;99663.59;1713916;82;21197;-79
2022/10/19 12:17:39;;;;;;;12.05;2.30;;;;;;;18.03;52.45;99664.09;1690708;84;22342;-79
2022/10/19 12:20:55;;;;;;;3.70;1.82;;;;;;;18.03;51.42;99669.08;1706352;84;21204;-79
2022/10/19 12:24:01;;;;;;;4.58;2.10;;;;;;;18.12;51.19;99659.33;1708190;84;21248;-79
2022/10/19 12:27:07;;;;;;;6.03;2.15;;;;;;;18.20;50.29;99660.03;1706529;83;22060;-79
2022/10/19 12:30:21;;;;;;;4.10;1.95;;;;;;;18.50;49.26;99657.13;1693144;84;21193;-79
2022/10/19 12:33:29;;;;;;;6.15;2.40;;;;;;;18.43;49.06;99661.94;1720413;83;21795;-79
2022/10/19 12:37:09;;;;;;;4.58;1.87;;;;;;;18.53;48.50;99655.23;1692657;84;21187;-79
2022/10/19 12:40:35;;;;;;;6.17;2.33;;;;;;;18.40;48.38;99652.20;1718117;83;21775;-79
2022/10/19 12:44:04;;;;;;;10.85;2.75;;;;;;;18.48;48.37;99653.19;1723328;82;21193;-80
2022/10/19 12:47:20;;;;;;;5.25;2.40;;;;;;;18.42;49.09;99648.64;1717996;82;21151;-79
2022/10/19 12:50:29;;;;;;;6.60;2.65;;;;;;;18.64;48.91;99655.22;1716689;83;21237;-78
2022/10/19 12:53:43;;;;;;;10.53;2.72;;;;;;;18.56;49.37;99643.67;1704600;83;21311;-79
2022/10/19 12:56:57;;;;;;;7.40;3.10;;;;;;;18.56;49.72;99650.05;1718820;83;21168;-78
2022/10/19 13:00:10;;;;;;;15.38;2.87;;;;;;;18.69;49.70;99643.98;1720009;83;21216;-78
2022/10/19 13:03:15;;;;;;;16.00;3.10;;;;;;;18.69;50.09;99637.89;1719153;83;21203;-78
2022/10/19 13:06:33;;;;;;;13.85;3.30;;;;;;;18.74;50.78;99637.16;1720414;83;21280;-78
2022/10/19 13:09:44;;;;;;;6.05;3.08;;;;;;;18.60;50.94;99633.25;1719062;83;21275;-78
2022/10/19 13:12:52;;;;;;;9.65;3.50;;;;;;;18.82;50.57;99636.74;1697972;83;22440;-78
2022/10/19 13:15:59;;;;;;;13.90;2.85;;;;;;;18.61;51.36;99621.08;1678235;84;21277;-78
2022/10/19 13:19:24;;;;;;;12.45;3.00;;;;;;;18.54;51.75;99625.92;1720730;83;21303;-78
2022/10/19 13:22:35;;;;;;;19.65;3.20;;;;;;;18.60;51.77;99625.48;1695815;84;21253;-79
2022/10/19 13:25:44;;;;;;;7.83;3.95;;;;;;;18.62;51.98;99619.14;1721807;83;21203;-78
2022/10/19 13:29:00;;;;;;;11.97;4.20;;;;;;;18.55;51.30;99609.60;1721714;83;21180;-79
2022/10/19 13:32:26;;;;;;;16.42;3.50;;;;;;;18.37;51.25;99607.84;1719496;83;21244;-79
2022/10/19 13:35:41;;;;;;;13.75;3.65;;;;;;;18.39;51.18;99594.58;1721484;83;21184;-79
2022/10/19 13:39:09;;;;;;;12.47;4.12;;;;;;;18.35;51.33;99593.41;1719143;83;21263;-79
2022/10/19 13:42:33;;;;;;;9.83;3.70;;;;;;;18.66;50.54;99595.41;1719609;83;21846;-79
2022/10/19 13:45:39;;;;;;;17.30;4.90;;;;;;;15.87;58.57;99593.48;1720662;83;21216;-79
2022/10/19 13:49:24;;;;;;;27.77;4.17;;;;;;;16.22;58.84;99584.59;1714221;82;21228;-79
2022/10/19 13:52:37;;;;;;;17.70;3.98;;;;;;;16.60;57.65;99579.63;1642891;87;21218;-79
2022/10/19 13:56:07;;;;;;;6.45;3.25;;;;;;;16.73;57.41;99576.42;1710943;83;21242;-79
2022/10/19 13:59:54;;;;;;;7.33;3.12;;;;;;;16.74;57.57;99578.94;1689407;85;21215;-79
2022/10/19 14:03:32;;;;;;;8.38;3.55;;;;;;;16.77;57.42;99575.72;1622983;88;21818;-79
2022/10/19 14:06:51;;;;;;;16.37;4.28;;;;;;;16.56;58.39;99569.28;1676975;85;21775;-78
2022/10/19 14:10:20;;;;;;;11.18;4.08;;;;;;;16.54;58.52;99566.77;1689377;85;21199;-78
2022/10/19 14:13:28;;;;;;;20.40;4.40;;;;;;;16.53;58.71;99571.98;1689806;85;21200;-78
2022/10/19 14:16:34;;;;;;;12.55;3.92;;;;;;;16.84;57.89;99561.80;1623080;88;21770;-78
2022/10/19 14:19:51;;;;;;;27.25;4.00;;;;;;;16.51;58.76;99571.36;1670899;85;22471;-78
2022/10/19 14:22:57;;;;;;;20.17;4.83;;;;;;;16.36;59.52;99565.41;1675701;85;21624;-78
2022/10/19 14:26:05;;;;;;;21.55;4.95;;;;;;;16.27;59.77;99566.80;1675878;85;21864;-78
2022/10/19 14:29:10;;;;;;;14.30;5.72;;;;;;;16.58;58.86;99559.70;1719195;82;21248;-78
2022/10/19 14:32:17;;;;;;;11.83;5.15;;;;;;;16.40;59.26;99558.90;1723803;82;21734;-78
2022/10/19 14:35:40;;;;;;;16.95;5.67;;;;;;;16.32;59.56;99555.91;1647792;87;21380;-78
2022/10/19 14:38:47;;;;;;;16.42;4.55;;;;;;;16.48;59.26;99551.69;1717916;83;21224;-79
2022/10/19 14:41:53;;;;;;;14.43;5.10;;;;;;;16.09;60.57;99553.86;1718589;83;21228;-78
2022/10/19 14:45:01;;;;;;;19.85;5.03;;;;;;;16.12;60.58;99552.56;1648307;87;21215;-78
2022/10/19 14:48:15;;;;;;;21.95;5.95;;;;;;;15.85;61.55;99547.34;1699589;83;21295;-78